createdAt,value
2023-01-06T00:09:10.068Z,4.29
2023-01-06T00:24:13.869Z,4.32
2023-01-06T00:39:27.866Z,4.36
2023-01-06T00:54:43.792Z,4.33
2023-01-06T01:09:46.983Z,4.20
2023-01-06T01:24:50.375Z,4.22
2023-01-06T01:39:53.474Z,4.06
2023-01-06T01:54:57.131Z,4.13
2023-01-06T02:10:10.029Z,4.17
2023-01-06T02:25:19.140Z,4.12
2023-01-06T02:41:02.263Z,4.10
2023-01-06T02:56:06.391Z,4.04
2023-01-06T03:11:10.079Z,3.96
2023-01-06T03:26:14.720Z,3.92
2023-01-06T03:41:44.632Z,3.77
2023-01-06T03:56:57.021Z,3.67
2023-01-06T04:12:19.084Z,3.73
2023-01-06T04:27:22.478Z,3.65
2023-01-06T04:42:25.805Z,3.50
2023-01-06T04:57:29.177Z,3.43
2023-01-06T05:12:33.148Z,3.31
2023-01-06T05:27:36.308Z,3.14
2023-01-06T05:42:39.713Z,3.02
2023-01-06T05:57:43.036Z,3.00
2023-01-06T06:12:46.226Z,3.00
2023-01-06T06:27:49.757Z,2.98
2023-01-06T06:42:53.220Z,3.03
2023-01-06T06:57:56.391Z,2.96
2023-01-06T07:12:59.585Z,3.02
2023-01-06T07:28:05.786Z,3.04
2023-01-06T07:43:10.965Z,2.98
2023-01-06T07:58:14.156Z,3.07
2023-01-06T08:13:19.623Z,3.20
2023-01-06T08:28:23.716Z,3.27
2023-01-06T08:43:28.521Z,3.27
2023-01-06T08:58:31.697Z,3.42
2023-01-06T09:13:36.262Z,3.42
2023-01-06T09:28:39.563Z,3.39
2023-01-06T09:43:52.823Z,3.40
2023-01-06T09:59:11.111Z,3.40
2023-01-06T10:14:15.297Z,3.58
2023-01-06T10:29:20.105Z,3.62
2023-01-06T10:44:23.312Z,3.46
2023-01-06T10:59:26.574Z,3.33
2023-01-06T11:14:32.958Z,3.12
2023-01-06T11:29:36.184Z,3.21
2023-01-06T11:44:41.202Z,3.32
2023-01-06T12:00:13.887Z,3.46
2023-01-06T12:15:19.434Z,3.41
2023-01-06T12:30:40.280Z,3.62
2023-01-06T12:45:58.094Z,3.73
2023-01-06T13:01:09.321Z,3.69
2023-01-06T13:16:53.600Z,3.61
2023-01-06T13:32:23.516Z,3.52
2023-01-06T13:47:27.640Z,3.53
2023-01-06T14:02:34.479Z,3.42
2023-01-06T14:17:41.283Z,3.38
2023-01-06T14:32:45.013Z,3.40
2023-01-06T14:47:52.457Z,3.34
2023-01-06T15:03:03.061Z,3.16
2023-01-06T15:18:07.859Z,2.92
2023-01-06T15:33:12.180Z,2.73
2023-01-06T15:48:21.158Z,2.61
2023-01-06T16:03:27.243Z,2.53
2023-01-06T16:18:33.664Z,2.41
2023-01-06T16:33:41.387Z,2.34
2023-01-06T16:48:45.103Z,2.31
2023-01-06T17:03:55.349Z,2.36
2023-01-06T17:19:26.883Z,2.30
2023-01-06T17:34:37.073Z,2.30
2023-01-06T17:49:40.986Z,2.33
2023-01-06T18:04:46.775Z,2.32
2023-01-06T18:19:50.984Z,2.22
2023-01-06T18:35:02.459Z,2.16
2023-01-06T18:50:42.107Z,2.25
2023-01-06T19:05:45.827Z,2.36
2023-01-06T19:20:52.155Z,2.26
2023-01-06T19:35:59.049Z,2.42
2023-01-06T19:51:17.474Z,2.45
2023-01-06T20:06:22.074Z,2.74
2023-01-06T20:21:25.476Z,2.82
2023-01-06T20:36:29.093Z,2.87
2023-01-06T20:51:33.037Z,3.04
2023-01-06T21:06:43.570Z,3.08
2023-01-06T21:21:48.243Z,3.12
2023-01-06T21:36:51.620Z,3.17
2023-01-06T21:51:55.924Z,3.10
2023-01-06T22:07:02.863Z,3.13
2023-01-06T22:22:09.476Z,3.19
2023-01-06T22:37:12.805Z,3.35
2023-01-06T22:52:16.201Z,3.35
2023-01-06T23:07:19.371Z,3.43
2023-01-06T23:22:25.841Z,3.50
2023-01-06T23:37:29.061Z,3.40
2023-01-06T23:52:32.650Z,3.48
